createdAt,value
2022-09-05T00:01:52.487Z,1.75
2022-09-05T00:04:24.814Z,1.50
2022-09-05T00:06:27.485Z,1.70
2022-09-05T00:08:55.064Z,1.48
2022-09-05T00:11:42.166Z,1.60
2022-09-05T00:13:42.689Z,1.60
2022-09-05T00:16:20.715Z,1.65
2022-09-05T00:23:38.659Z,1.80
2022-09-05T00:24:33.158Z,1.60
2022-09-05T00:24:50.158Z,1.70
2022-09-05T00:26:58.235Z,1.60
2022-09-05T00:29:16.272Z,1.83
2022-09-05T00:31:57.440Z,1.50
2022-09-05T00:34:16.214Z,1.50
2022-09-05T00:36:42.825Z,1.52
2022-09-05T00:38:53.068Z,1.70
2022-09-05T00:41:04.974Z,1.65
2022-09-05T00:43:09.788Z,1.50
2022-09-05T00:45:23.415Z,1.80
2022-09-05T00:47:31.086Z,1.52
2022-09-05T00:49:53.622Z,1.27
2022-09-05T00:52:04.974Z,1.55
2022-09-05T00:54:09.606Z,1.48
2022-09-05T00:56:14.099Z,1.33
2022-09-05T00:58:53.301Z,1.42
2022-09-05T01:00:57.984Z,1.50
2022-09-05T01:03:21.152Z,1.55
2022-09-05T01:05:52.115Z,1.38
2022-09-05T01:08:24.725Z,1.55
2022-09-05T01:10:39.821Z,1.40
2022-09-05T01:13:16.697Z,1.40
2022-09-05T01:16:06.009Z,1.30
2022-09-05T01:18:42.546Z,1.35
2022-09-05T01:21:16.698Z,1.48
2022-09-05T01:23:30.283Z,1.33
2022-09-05T01:25:51.011Z,1.30
2022-09-05T01:29:16.894Z,1.50
2022-09-05T01:30:43.041Z,1.67
2022-09-05T01:33:05.877Z,1.48
2022-09-05T01:35:26.386Z,1.27
2022-09-05T01:37:52.196Z,1.75
2022-09-05T01:41:18.923Z,1.30
2022-09-05T01:43:35.751Z,1.60
2022-09-05T01:45:46.529Z,1.33
2022-09-05T01:48:06.673Z,1.40
2022-09-05T01:50:10.482Z,1.35
2022-09-05T01:52:35.189Z,1.40
2022-09-05T01:54:53.305Z,1.35
2022-09-05T01:57:32.363Z,1.40
2022-09-05T01:59:34.023Z,1.38
2022-09-05T02:01:47.358Z,1.40
2022-09-05T02:04:10.214Z,1.40
2022-09-05T02:06:35.353Z,1.42
2022-09-05T02:08:42.217Z,1.65
2022-09-05T02:10:58.515Z,1.33
2022-09-05T02:13:15.442Z,1.45
2022-09-05T02:15:28.445Z,1.35
2022-09-05T02:17:50.882Z,1.30
2022-09-05T02:20:23.451Z,1.50
2022-09-05T02:22:33.958Z,1.38
2022-09-05T02:24:43.599Z,1.17
2022-09-05T02:27:04.463Z,1.67
2022-09-05T02:29:39.302Z,1.20
2022-09-05T02:31:49.385Z,1.40
2022-09-05T02:34:17.393Z,1.27
2022-09-05T02:36:45.883Z,1.40
2022-09-05T02:45:04.109Z,1.48
2022-09-05T02:45:06.150Z,1.42
2022-09-05T02:45:20.071Z,1.58
2022-09-05T02:47:38.320Z,1.27
2022-09-05T02:52:39.422Z,1.20
2022-09-05T02:57:30.442Z,1.10
2022-09-05T02:57:35.915Z,1.30
2022-09-05T02:58:04.011Z,1.40
2022-09-05T02:59:56.804Z,1.10
2022-09-05T03:02:26.114Z,1.33
2022-09-05T03:04:38.077Z,1.33
2022-09-05T03:07:16.296Z,1.20
2022-09-05T03:09:50.152Z,1.20
2022-09-05T03:12:29.934Z,1.40
2022-09-05T03:15:18.649Z,1.17
2022-09-05T03:17:42.800Z,1.27
2022-09-05T03:19:59.315Z,1.40
2022-09-05T03:22:12.930Z,1.40
2022-09-05T03:24:36.033Z,1.40
2022-09-05T03:26:55.997Z,1.20
2022-09-05T03:29:09.359Z,1.35
2022-09-05T03:31:23.104Z,1.20
2022-09-05T03:33:33.119Z,1.45
2022-09-05T03:35:46.962Z,1.25
2022-09-05T03:38:13.308Z,1.48
2022-09-05T03:40:36.454Z,1.40
2022-09-05T03:43:02.927Z,1.33
2022-09-05T03:45:36.737Z,1.30
2022-09-05T03:48:00.608Z,1.30
2022-09-05T03:56:20.304Z,1.27
2022-09-05T03:57:11.363Z,1.60
2022-09-05T03:57:25.010Z,1.50
2022-09-05T03:59:20.801Z,1.70
2022-09-05T04:03:30.811Z,1.27
2022-09-05T04:08:16.717Z,1.50
2022-09-05T04:08:19.556Z,1.63
2022-09-05T04:09:01.779Z,1.50
2022-09-05T04:11:06.651Z,1.40
2022-09-05T04:13:14.773Z,1.35
2022-09-05T04:15:21.913Z,1.55
2022-09-05T04:17:44.422Z,1.50
2022-09-05T04:19:52.534Z,1.42
2022-09-05T04:22:15.324Z,1.55
2022-09-05T04:24:29.048Z,1.52
2022-09-05T04:26:56.234Z,2.00
2022-09-05T04:29:39.169Z,1.80
2022-09-05T04:32:18.640Z,1.73
2022-09-05T04:34:51.089Z,2.13
2022-09-05T04:37:03.668Z,1.70
2022-09-05T04:39:06.446Z,1.70
2022-09-05T04:41:10.769Z,1.80
2022-09-05T04:45:24.085Z,1.85
2022-09-05T04:47:37.362Z,1.77
2022-09-05T04:49:42.155Z,1.70
2022-09-05T04:51:59.913Z,1.70
2022-09-05T04:54:23.802Z,1.63
2022-09-05T04:56:35.209Z,1.60
2022-09-05T05:00:41.129Z,1.70
2022-09-05T05:06:00.846Z,1.90
2022-09-05T05:06:16.112Z,1.50
2022-09-05T05:06:30.132Z,1.40
2022-09-05T05:08:43.634Z,1.70
2022-09-05T05:17:10.944Z,1.70
2022-09-05T05:18:10.380Z,1.45
2022-09-05T05:18:14.993Z,1.50
2022-09-05T05:19:31.310Z,1.35
2022-09-05T05:21:33.044Z,1.70
2022-09-05T05:23:43.141Z,1.60
2022-09-05T05:25:55.219Z,1.67
2022-09-05T05:28:25.292Z,1.60
2022-09-05T05:30:28.550Z,1.60
2022-09-05T05:32:47.673Z,1.60
2022-09-05T05:34:55.300Z,1.75
2022-09-05T05:37:11.861Z,1.95
2022-09-05T05:39:15.262Z,1.65
2022-09-05T05:41:19.940Z,1.73
2022-09-05T05:43:33.864Z,1.88
2022-09-05T05:45:35.698Z,1.60
2022-09-05T05:47:42.231Z,1.65
2022-09-05T05:49:52.578Z,1.85
2022-09-05T05:52:08.579Z,1.70
2022-09-05T05:54:22.201Z,2.45
2022-09-05T05:56:26.690Z,2.88
2022-09-05T05:58:50.190Z,2.10
2022-09-05T06:01:38.013Z,2.53
2022-09-05T06:03:45.525Z,2.40
2022-09-05T06:06:18.221Z,2.30
2022-09-05T06:11:38.897Z,2.40
2022-09-05T06:14:56.250Z,2.20
2022-09-05T06:15:01.051Z,2.30
2022-09-05T06:16:59.910Z,2.28
2022-09-05T06:19:19.783Z,2.08
2022-09-05T06:22:10.650Z,2.35
2022-09-05T06:24:16.153Z,2.50
2022-09-05T06:26:25.728Z,2.15
2022-09-05T06:28:52.458Z,2.05
2022-09-05T06:31:29.220Z,1.75
2022-09-05T06:33:28.873Z,2.17
2022-09-05T06:35:59.105Z,2.33
2022-09-05T06:38:37.209Z,2.55
2022-09-05T06:40:41.535Z,2.67
2022-09-05T06:45:27.896Z,2.42
2022-09-05T06:47:33.734Z,2.58
2022-09-05T06:49:39.341Z,2.45
2022-09-05T06:52:02.666Z,2.65
2022-09-05T06:54:32.668Z,2.58
2022-09-05T06:57:02.606Z,2.38
2022-09-05T06:59:38.472Z,2.08
2022-09-05T07:02:00.245Z,2.13
2022-09-05T07:05:14.806Z,2.20
2022-09-05T07:07:24.824Z,2.58
2022-09-05T07:09:47.736Z,2.35
2022-09-05T07:12:14.967Z,2.03
2022-09-05T07:14:24.807Z,2.00
2022-09-05T07:16:37.488Z,2.00
2022-09-05T07:18:46.402Z,2.00
2022-09-05T07:21:15.737Z,2.00
2022-09-05T07:24:07.154Z,1.80
2022-09-05T07:25:53.333Z,1.80
2022-09-05T07:28:28.862Z,1.88
2022-09-05T07:30:26.509Z,1.90
2022-09-05T07:32:29.872Z,2.00
2022-09-05T07:34:32.508Z,2.30
2022-09-05T07:36:39.748Z,1.75
2022-09-05T07:38:52.269Z,2.00
2022-09-05T07:41:21.793Z,1.88
2022-09-05T07:43:33.411Z,2.28
2022-09-05T07:45:36.609Z,2.35
2022-09-05T07:47:51.786Z,2.10
2022-09-05T07:50:42.883Z,1.95
2022-09-05T07:56:51.537Z,1.90
2022-09-05T07:57:02.493Z,2.33
2022-09-05T07:59:25.297Z,1.73
2022-09-05T08:01:27.120Z,1.75
2022-09-05T08:03:28.895Z,1.73
2022-09-05T08:05:36.412Z,1.70
2022-09-05T08:07:49.013Z,1.42
2022-09-05T08:10:05.875Z,1.45
2022-09-05T08:12:16.029Z,1.42
2022-09-05T08:14:44.296Z,1.30
2022-09-05T08:16:47.566Z,1.50
2022-09-05T08:18:52.761Z,1.38
2022-09-05T08:21:03.996Z,1.10
2022-09-05T08:23:14.527Z,1.30
2022-09-05T08:25:18.535Z,1.40
2022-09-05T08:27:24.883Z,1.30
2022-09-05T08:29:35.786Z,1.38
2022-09-05T08:31:47.278Z,1.30
2022-09-05T08:33:49.100Z,1.30
2022-09-05T08:36:01.055Z,1.63
2022-09-05T08:38:03.290Z,1.27
2022-09-05T08:40:13.374Z,1.30
2022-09-05T08:42:17.975Z,1.40
2022-09-05T08:46:53.947Z,1.30
2022-09-05T08:50:08.104Z,1.30
2022-09-05T08:51:57.468Z,1.25
2022-09-05T08:54:10.606Z,1.30
2022-09-05T08:56:22.765Z,1.17
2022-09-05T08:58:41.494Z,1.02
2022-09-05T09:00:57.220Z,1.40
2022-09-05T09:03:29.525Z,1.13
2022-09-05T09:06:13.363Z,1.10
2022-09-05T09:08:35.176Z,0.90
2022-09-05T09:10:58.345Z,1.23
2022-09-05T09:13:17.044Z,1.02
2022-09-05T09:15:30.983Z,1.30
2022-09-05T09:17:45.057Z,1.00
2022-09-05T09:19:53.068Z,1.00
2022-09-05T09:22:33.152Z,1.10
2022-09-05T09:25:15.102Z,1.05
2022-09-05T09:28:01.529Z,1.00
2022-09-05T09:29:55.189Z,1.02
2022-09-05T09:32:20.386Z,0.90
2022-09-05T09:34:25.141Z,1.13
2022-09-05T09:36:57.943Z,1.08
2022-09-05T09:39:13.114Z,0.93
2022-09-05T09:41:21.217Z,1.13
2022-09-05T09:43:26.898Z,1.00
2022-09-05T09:45:43.753Z,1.10
2022-09-05T09:47:55.011Z,1.02
2022-09-05T09:50:27.497Z,1.20
2022-09-05T09:52:52.305Z,1.10
2022-09-05T09:54:56.745Z,0.98
2022-09-05T09:57:10.620Z,1.00
2022-09-05T09:59:33.933Z,1.02
2022-09-05T10:02:07.405Z,1.25
2022-09-05T10:10:38.590Z,1.00
2022-09-05T10:10:53.341Z,1.00
2022-09-05T10:10:54.225Z,1.15
2022-09-05T10:13:08.647Z,0.82
2022-09-05T10:15:31.116Z,1.00
2022-09-05T10:17:49.905Z,1.17
2022-09-05T10:20:14.883Z,1.30
2022-09-05T10:22:36.555Z,1.40
2022-09-05T10:24:51.102Z,1.70
2022-09-05T10:27:01.484Z,1.70
2022-09-05T10:29:17.043Z,1.75
2022-09-05T10:34:59.405Z,1.58
2022-09-05T10:35:14.791Z,1.30
2022-09-05T10:36:37.100Z,1.50
2022-09-05T10:38:43.155Z,1.50
2022-09-05T10:41:20.717Z,1.40
2022-09-05T10:43:22.248Z,1.60
2022-09-05T10:45:39.178Z,1.33
2022-09-05T10:48:08.306Z,1.45
2022-09-05T10:50:27.141Z,1.60
2022-09-05T10:52:57.858Z,1.50
2022-09-05T10:55:14.860Z,1.30
2022-09-05T10:57:31.388Z,1.42
2022-09-05T11:02:23.868Z,1.10
2022-09-05T11:02:28.290Z,1.20
2022-09-05T11:04:49.743Z,1.00
2022-09-05T11:07:13.749Z,1.10
2022-09-05T11:09:44.228Z,1.60
2022-09-05T11:11:50.207Z,1.50
2022-09-05T11:13:53.601Z,1.30
2022-09-05T11:16:12.738Z,1.60
2022-09-05T11:18:55.279Z,1.42
2022-09-05T11:21:07.850Z,1.40
2022-09-05T11:23:19.554Z,1.70
2022-09-05T11:25:28.197Z,1.58
2022-09-05T11:27:46.051Z,1.90
2022-09-05T11:29:49.905Z,1.48
2022-09-05T11:35:48.014Z,1.38
2022-09-05T11:40:02.601Z,1.80
2022-09-05T11:40:31.573Z,1.20
2022-09-05T11:42:22.262Z,1.10
2022-09-05T11:44:32.688Z,1.23
2022-09-05T11:46:37.438Z,1.40
2022-09-05T11:49:18.606Z,1.20
2022-09-05T11:51:34.420Z,1.30
2022-09-05T11:54:04.110Z,1.60
2022-09-05T11:56:28.848Z,1.70
2022-09-05T11:58:46.101Z,1.60
2022-09-05T12:01:41.592Z,1.80
2022-09-05T12:03:59.535Z,1.40
2022-09-05T12:06:25.461Z,1.60
2022-09-05T12:08:59.097Z,1.42
2022-09-05T12:11:23.428Z,1.37
2022-09-05T12:14:17.065Z,1.40
2022-09-05T12:16:38.746Z,1.50
2022-09-05T12:19:02.887Z,1.40
2022-09-05T12:22:00.229Z,1.17
2022-09-05T12:25:16.874Z,1.23
2022-09-05T12:27:40.098Z,1.20
2022-09-05T12:29:36.178Z,1.08
2022-09-05T12:32:30.560Z,1.58
2022-09-05T12:36:05.683Z,1.13
2022-09-05T12:40:15.795Z,1.55
2022-09-05T12:41:33.759Z,1.48
2022-09-05T12:42:26.054Z,1.17
2022-09-05T12:44:44.777Z,1.35
2022-09-05T12:47:17.025Z,1.48
2022-09-05T12:49:47.310Z,1.23
2022-09-05T12:52:18.104Z,1.40
2022-09-05T12:54:33.912Z,2.00
2022-09-05T13:02:13.338Z,1.30
2022-09-05T13:03:12.214Z,1.38
2022-09-05T13:04:31.038Z,1.27
2022-09-05T13:06:37.297Z,1.50
2022-09-05T13:08:47.003Z,1.52
2022-09-05T13:14:46.531Z,1.70
2022-09-05T13:14:52.472Z,1.50
2022-09-05T13:15:55.486Z,1.75
2022-09-05T13:18:03.099Z,1.38
2022-09-05T13:20:24.759Z,1.58
2022-09-05T13:22:26.660Z,1.90
2022-09-05T13:24:30.236Z,2.20
2022-09-05T13:26:43.972Z,2.30
2022-09-05T13:29:08.378Z,2.40
2022-09-05T13:37:55.873Z,2.00
2022-09-05T13:38:19.480Z,2.15
2022-09-05T13:38:29.150Z,2.35
2022-09-05T13:39:05.373Z,2.00
2022-09-05T13:41:08.042Z,2.40
2022-09-05T13:43:35.398Z,2.33
2022-09-05T13:46:06.311Z,2.15
2022-09-05T13:49:23.184Z,2.22
2022-09-05T13:50:52.434Z,2.20
2022-09-05T13:52:59.168Z,2.42
2022-09-05T13:55:09.612Z,2.60
2022-09-05T13:57:18.612Z,2.15
2022-09-05T13:59:40.186Z,2.22
2022-09-05T14:02:29.801Z,2.00
2022-09-05T14:05:05.892Z,2.42
2022-09-05T14:10:14.958Z,2.08
2022-09-05T14:12:36.935Z,2.03
2022-09-05T14:19:51.749Z,1.75
2022-09-05T14:21:53.562Z,1.55
2022-09-05T14:23:56.356Z,1.33
2022-09-05T14:26:00.302Z,1.27
2022-09-05T14:28:02.144Z,1.30
2022-09-05T14:31:08.179Z,1.20
2022-09-05T14:37:36.273Z,1.13
2022-09-05T14:37:43.958Z,1.13
2022-09-05T14:38:14.877Z,1.20
2022-09-05T14:41:01.001Z,1.10
2022-09-05T14:43:24.452Z,0.80
2022-09-05T14:46:00.284Z,1.00
2022-09-05T14:48:21.134Z,0.90
2022-09-05T14:50:24.926Z,1.10
2022-09-05T14:52:28.740Z,0.90
2022-09-05T15:01:54.971Z,0.80
2022-09-05T15:02:44.081Z,1.10
2022-09-05T15:02:56.472Z,0.93
2022-09-05T15:04:37.244Z,0.98
2022-09-05T15:06:41.464Z,0.80
2022-09-05T15:11:25.377Z,0.90
2022-09-05T15:12:15.297Z,0.90
2022-09-05T15:13:29.092Z,0.90
2022-09-05T15:15:35.695Z,0.95
2022-09-05T15:17:37.433Z,0.80
2022-09-05T15:19:49.376Z,1.10
2022-09-05T15:22:28.711Z,0.73
2022-09-05T15:24:30.464Z,0.90
2022-09-05T15:26:32.319Z,1.23
2022-09-05T15:28:45.085Z,1.63
2022-09-05T15:30:57.396Z,0.80
2022-09-05T15:33:27.857Z,0.80
2022-09-05T15:35:38.285Z,0.80
2022-09-05T15:37:41.263Z,0.65
2022-09-05T15:39:43.118Z,0.90
2022-09-05T15:41:44.958Z,0.90
2022-09-05T15:44:01.351Z,0.80
2022-09-05T15:46:03.603Z,1.23
2022-09-05T15:48:05.484Z,0.90
2022-09-05T15:50:21.799Z,0.73
2022-09-05T15:52:28.695Z,1.08
2022-09-05T15:54:51.192Z,0.80
2022-09-05T15:56:53.900Z,1.05
2022-09-05T15:58:56.904Z,1.90
2022-09-05T16:00:58.817Z,1.45
2022-09-05T16:04:40.783Z,1.30
2022-09-05T16:10:28.505Z,1.30
2022-09-05T16:10:37.063Z,1.00
2022-09-05T16:10:38.136Z,0.98
2022-09-05T16:12:49.113Z,0.90
2022-09-05T16:15:51.388Z,1.10
2022-09-05T16:23:17.546Z,1.02
2022-09-05T16:23:28.689Z,0.98
2022-09-05T16:23:29.700Z,0.93
2022-09-05T16:25:16.751Z,1.08
2022-09-05T16:27:49.951Z,1.30
2022-09-05T16:29:51.769Z,1.30
2022-09-05T16:31:59.513Z,1.05
2022-09-05T16:34:02.860Z,1.10
2022-09-05T16:36:16.312Z,1.00
2022-09-05T16:38:48.677Z,1.20
2022-09-05T16:40:51.876Z,1.10
2022-09-05T16:43:07.081Z,1.20
2022-09-05T16:45:16.937Z,1.25
2022-09-05T16:47:41.417Z,1.10
2022-09-05T16:49:48.350Z,1.30
2022-09-05T16:51:58.695Z,1.30
2022-09-05T16:54:12.970Z,1.35
2022-09-05T16:56:27.786Z,1.23
2022-09-05T17:01:17.186Z,1.27
2022-09-05T17:03:28.660Z,1.20
2022-09-05T17:06:00.636Z,1.38
2022-09-05T17:08:17.314Z,1.40
2022-09-05T17:10:43.405Z,1.73
2022-09-05T17:12:45.379Z,1.50
2022-09-05T17:14:50.066Z,1.88
2022-09-05T17:16:56.817Z,1.33
2022-09-05T17:19:00.211Z,1.50
2022-09-05T17:21:07.470Z,1.48
2022-09-05T17:26:55.460Z,1.50
2022-09-05T17:29:30.886Z,1.50
2022-09-05T17:29:44.143Z,1.30
2022-09-05T17:33:44.790Z,1.27
2022-09-05T17:36:04.624Z,1.45
2022-09-05T17:38:37.222Z,1.50
2022-09-05T17:41:09.480Z,1.40
2022-09-05T17:43:35.499Z,1.60
2022-09-05T17:45:48.777Z,1.10
2022-09-05T17:47:54.637Z,1.25
2022-09-05T17:50:19.359Z,1.00
2022-09-05T17:52:21.673Z,1.10
2022-09-05T17:54:30.888Z,1.35
2022-09-05T17:56:36.525Z,1.23
2022-09-05T17:58:49.537Z,1.20
2022-09-05T18:00:52.433Z,1.27
2022-09-05T18:02:55.964Z,1.20
2022-09-05T18:04:57.916Z,1.40
2022-09-05T18:07:01.102Z,1.25
2022-09-05T18:09:08.895Z,1.20
2022-09-05T18:11:17.224Z,1.40
2022-09-05T18:13:32.305Z,1.20
2022-09-05T18:15:35.126Z,1.42
2022-09-05T18:17:38.200Z,1.73
2022-09-05T18:19:46.287Z,1.33
2022-09-05T18:22:19.650Z,1.73
2022-09-05T18:24:33.414Z,1.50
2022-09-05T18:26:46.709Z,1.40
2022-09-05T18:29:06.007Z,1.53
2022-09-05T18:31:41.669Z,1.67
2022-09-05T18:34:13.858Z,1.50
2022-09-05T18:36:18.666Z,1.70
2022-09-05T18:38:50.524Z,1.50
2022-09-05T18:41:12.024Z,1.25
2022-09-05T18:43:33.995Z,1.73
2022-09-05T18:45:35.904Z,1.42
2022-09-05T18:47:51.166Z,1.73
2022-09-05T18:50:25.215Z,1.33
2022-09-05T18:52:26.177Z,1.42
2022-09-05T18:54:27.945Z,1.70
2022-09-05T18:57:12.110Z,1.83
2022-09-05T18:59:16.274Z,2.55
2022-09-05T19:03:28.498Z,1.90
2022-09-05T19:05:33.304Z,2.47
2022-09-05T19:07:41.665Z,1.35
2022-09-05T19:10:33.958Z,1.50
2022-09-05T19:12:35.064Z,1.77
2022-09-05T19:14:50.650Z,1.95
2022-09-05T19:16:52.542Z,1.63
2022-09-05T19:19:16.266Z,2.65
2022-09-05T19:21:18.507Z,1.70
2022-09-05T19:23:23.001Z,2.13
2022-09-05T19:25:33.065Z,1.30
2022-09-05T19:29:07.298Z,1.63
2022-09-05T19:36:44.757Z,1.67
2022-09-05T19:36:58.521Z,1.50
2022-09-05T19:37:10.375Z,1.27
2022-09-05T19:37:24.472Z,1.20
2022-09-05T19:43:29.751Z,1.20
2022-09-05T19:47:40.055Z,1.40
2022-09-05T19:47:41.871Z,1.23
2022-09-05T19:47:56.599Z,1.30
2022-09-05T19:50:03.980Z,1.20
2022-09-05T19:52:15.435Z,1.10
2022-09-05T19:54:23.226Z,1.20
2022-09-05T19:56:29.396Z,1.27
2022-09-05T19:58:35.244Z,1.13
2022-09-05T20:00:37.244Z,1.13
2022-09-05T20:02:39.176Z,1.27
2022-09-05T20:04:59.943Z,1.10
2022-09-05T20:07:10.722Z,1.20
2022-09-05T20:09:15.511Z,1.15
2022-09-05T20:11:23.293Z,0.93
2022-09-05T20:13:39.080Z,1.10
2022-09-05T20:15:40.948Z,1.13
2022-09-05T20:17:42.710Z,1.10
2022-09-05T20:19:44.742Z,1.10
2022-09-05T20:21:46.613Z,1.00
2022-09-05T20:23:49.345Z,1.17
2022-09-05T20:25:51.177Z,0.98
2022-09-05T20:27:52.911Z,1.05
2022-09-05T20:29:57.663Z,1.25
2022-09-05T20:31:59.455Z,1.10
2022-09-05T20:34:02.522Z,1.20
2022-09-05T20:43:17.034Z,1.10
2022-09-05T20:43:17.172Z,1.15
2022-09-05T20:43:25.121Z,1.10
2022-09-05T20:43:47.503Z,1.10
2022-09-05T20:45:52.132Z,1.30
2022-09-05T20:52:59.932Z,1.00
2022-09-05T20:54:12.840Z,1.20
2022-09-05T20:54:15.138Z,1.27
2022-09-05T20:55:38.350Z,1.20
2022-09-05T20:57:41.033Z,1.10
2022-09-05T20:59:42.849Z,1.00
2022-09-05T21:01:57.760Z,1.13
2022-09-05T21:04:00.208Z,1.20
2022-09-05T21:06:33.676Z,1.15
2022-09-05T21:08:36.133Z,1.20
2022-09-05T21:10:56.577Z,0.90
2022-09-05T21:12:58.571Z,1.17
2022-09-05T21:15:25.628Z,1.10
2022-09-05T21:17:38.541Z,1.20
2022-09-05T21:19:40.246Z,0.98
2022-09-05T21:21:42.003Z,1.30
2022-09-05T21:23:43.718Z,1.00
2022-09-05T21:25:52.804Z,1.20
2022-09-05T21:28:07.460Z,1.15
2022-09-05T21:30:31.078Z,1.13
2022-09-05T21:32:41.298Z,1.00
2022-09-05T21:34:50.506Z,1.10
2022-09-05T21:36:54.158Z,1.00
2022-09-05T21:39:08.754Z,1.10
2022-09-05T21:41:10.764Z,1.10
2022-09-05T21:47:33.659Z,1.30
2022-09-05T21:47:42.244Z,1.20
2022-09-05T21:48:02.870Z,1.02
2022-09-05T21:50:05.184Z,1.08
2022-09-05T21:52:07.426Z,0.98
2022-09-05T21:59:16.780Z,1.20
2022-09-05T21:59:20.377Z,1.10
2022-09-05T21:59:36.844Z,1.00
2022-09-05T22:01:17.424Z,0.88
2022-09-05T22:03:19.472Z,1.00
2022-09-05T22:05:21.352Z,1.13
2022-09-05T22:07:32.935Z,0.98
2022-09-05T22:09:35.047Z,1.33
2022-09-05T22:11:36.822Z,1.08
2022-09-05T22:13:39.432Z,1.10
2022-09-05T22:15:47.789Z,1.08
2022-09-05T22:17:49.709Z,1.20
2022-09-05T22:19:51.522Z,1.05
2022-09-05T22:22:00.386Z,1.00
2022-09-05T22:24:04.599Z,1.15
2022-09-05T22:26:06.438Z,1.08
2022-09-05T22:28:12.594Z,1.10
2022-09-05T22:30:14.463Z,1.05
2022-09-05T22:32:16.248Z,1.20
2022-09-05T22:34:20.871Z,1.00
2022-09-05T22:36:22.666Z,1.00
2022-09-05T22:38:24.678Z,0.90
2022-09-05T22:40:26.667Z,1.00
2022-09-05T22:42:28.449Z,1.00
2022-09-05T22:44:30.166Z,1.10
2022-09-05T22:46:31.997Z,0.90
2022-09-05T22:48:33.967Z,0.98
2022-09-05T22:50:35.759Z,1.02
2022-09-05T22:52:37.533Z,0.93
2022-09-05T22:54:39.287Z,0.80
2022-09-05T22:56:41.023Z,0.90
2022-09-05T22:58:44.780Z,1.10
2022-09-05T23:00:46.631Z,0.77
2022-09-05T23:02:52.415Z,0.73
2022-09-05T23:04:54.568Z,1.00
2022-09-05T23:06:56.327Z,1.00
2022-09-05T23:08:58.115Z,0.98
2022-09-05T23:11:08.390Z,1.10
2022-09-05T23:13:10.365Z,0.80
2022-09-05T23:15:12.170Z,0.88
2022-09-05T23:17:13.907Z,0.80
2022-09-05T23:19:15.615Z,0.90
2022-09-05T23:21:17.319Z,1.00
2022-09-05T23:23:19.114Z,1.10
2022-09-05T23:25:21.028Z,0.73
2022-09-05T23:27:22.789Z,1.00
2022-09-05T23:29:24.585Z,0.80
2022-09-05T23:31:26.374Z,0.90
2022-09-05T23:33:28.520Z,0.80
2022-09-05T23:35:30.260Z,0.90
2022-09-05T23:37:31.968Z,0.85
2022-09-05T23:39:33.840Z,1.27
2022-09-05T23:41:35.663Z,0.88
2022-09-05T23:43:37.483Z,0.90
2022-09-05T23:45:39.171Z,0.80
2022-09-05T23:47:40.989Z,0.80
2022-09-05T23:49:42.726Z,0.98
2022-09-05T23:51:44.505Z,0.85
2022-09-05T23:53:46.288Z,0.80
2022-09-05T23:55:48.140Z,0.75
2022-09-05T23:57:49.857Z,1.00
2022-09-05T23:59:51.598Z,0.60
